Time;durP1;ratioP1;P1;durP2;ratioP2;P2;SDS_P1;SDS_P2;PMS_P1;PMS_P2;Temp;Humidity;BMP_temperature;BMP_pressure;BME280_temperature;BME280_humidity;BME280_pressure;Samples;Min_cycle;Max_cycle;Signal;HPM_P1;HPM_P2
2024/02/17 00:01:19;;;;;;;28.48;12.25;;;9.10;99.90;;;;;;5011928;28;20052;-81
2024/02/17 00:03:44;;;;;;;33.55;14.90;;;9.00;99.90;;;;;;5017550;28;20037;-81
2024/02/17 00:06:10;;;;;;;28.42;15.02;;;9.00;99.90;;;;;;5019118;28;20037;-82
2024/02/17 00:08:35;;;;;;;23.00;13.30;;;9.00;99.90;;;;;;5019200;28;20041;-82
2024/02/17 00:11:03;;;;;;;29.48;14.23;;;8.90;99.90;;;;;;5019254;28;20403;-80
2024/02/17 00:13:29;;;;;;;24.33;14.52;;;8.90;99.90;;;;;;5019920;28;20156;-80
2024/02/17 00:15:54;;;;;;;25.35;12.82;;;8.90;99.90;;;;;;5019451;28;20127;-78
2024/02/17 00:18:23;;;;;;;29.33;14.32;;;8.90;99.90;;;;;;5019652;28;20033;-81
2024/02/17 00:20:48;;;;;;;27.23;13.93;;;8.90;99.90;;;;;;5018457;28;20527;-81
2024/02/17 00:23:14;;;;;;;35.95;15.82;;;8.90;99.90;;;;;;5018763;28;20035;-82
2024/02/17 00:25:40;;;;;;;36.58;16.85;;;8.80;99.90;;;;;;5019802;28;20041;-78
2024/02/17 00:28:06;;;;;;;29.25;15.15;;;8.90;99.90;;;;;;5019351;28;20035;-79
2024/02/17 00:30:32;;;;;;;26.85;14.20;;;9.00;99.90;;;;;;5019467;28;20438;-81
2024/02/17 00:33:02;;;;;;;29.55;13.32;;;9.00;99.90;;;;;;5019199;28;20037;-82
2024/02/17 00:35:27;;;;;;;26.27;13.98;;;8.90;99.90;;;;;;5020089;28;21423;-78
2024/02/17 00:37:53;;;;;;;30.42;14.27;;;8.80;99.90;;;;;;5018574;28;20033;-81
2024/02/17 00:40:19;;;;;;;27.35;14.88;;;8.80;99.90;;;;;;5019572;28;20041;-78
2024/02/17 00:42:45;;;;;;;28.70;14.45;;;8.90;99.90;;;;;;5019132;28;20047;-79
2024/02/17 00:45:11;;;;;;;31.35;15.20;;;8.90;99.90;;;;;;5019494;28;20029;-81
2024/02/17 00:47:36;;;;;;;32.08;15.70;;;8.90;99.90;;;;;;5018861;28;20022;-81
2024/02/17 00:50:02;;;;;;;34.03;16.20;;;8.80;99.90;;;;;;5018370;28;20041;-81
2024/02/17 00:52:28;;;;;;;32.17;15.68;;;9.00;99.90;;;;;;5018935;28;20033;-79
2024/02/17 00:54:53;;;;;;;31.30;15.70;;;9.00;99.90;;;;;;5018735;28;20029;-78
2024/02/17 00:57:19;;;;;;;31.38;15.68;;;9.00;99.90;;;;;;5021004;28;20445;-79
2024/02/17 00:59:45;;;;;;;29.42;14.65;;;8.90;99.90;;;;;;5022554;28;20030;-78
2024/02/17 01:02:10;;;;;;;32.97;16.25;;;8.90;99.90;;;;;;5022208;28;20049;-78
2024/02/17 01:04:36;;;;;;;27.67;14.13;;;9.00;99.90;;;;;;5022729;28;20083;-78
2024/02/17 01:07:02;;;;;;;27.55;13.60;;;9.00;99.90;;;;;;5021330;28;20030;-79
2024/02/17 01:09:27;;;;;;;28.13;14.15;;;9.00;99.90;;;;;;5021763;28;20056;-78
2024/02/17 01:11:53;;;;;;;23.60;12.95;;;9.10;99.90;;;;;;5022338;28;20037;-79
2024/02/17 01:14:20;;;;;;;22.27;12.38;;;9.10;99.90;;;;;;5020541;28;20029;-81
2024/02/17 01:16:46;;;;;;;28.98;13.18;;;9.00;99.90;;;;;;5018748;28;20034;-82
2024/02/17 01:19:12;;;;;;;28.73;13.32;;;9.00;99.90;;;;;;5019768;28;20073;-81
2024/02/17 01:21:37;;;;;;;25.63;13.73;;;9.10;99.90;;;;;;5019861;28;20467;-81
2024/02/17 01:24:04;;;;;;;31.48;15.75;;;9.10;99.90;;;;;;5033549;28;20044;-81
2024/02/17 01:26:29;;;;;;;30.13;16.20;;;9.00;99.90;;;;;;5018736;28;20044;-81
2024/02/17 01:28:55;;;;;;;26.15;13.30;;;9.10;99.90;;;;;;5019063;28;20033;-78
2024/02/17 01:31:21;;;;;;;27.42;13.25;;;9.20;99.90;;;;;;5018859;28;20049;-79
2024/02/17 01:33:50;;;;;;;29.55;14.90;;;9.00;99.90;;;;;;5018851;28;20038;-81
2024/02/17 01:36:16;;;;;;;32.13;14.63;;;9.00;99.90;;;;;;5019157;28;20490;-81
2024/02/17 01:38:43;;;;;;;27.77;12.43;;;9.00;99.90;;;;;;5019059;28;20041;-78
2024/02/17 01:41:08;;;;;;;30.58;13.85;;;9.00;99.90;;;;;;5018321;28;20045;-81
2024/02/17 01:43:34;;;;;;;23.65;13.27;;;8.80;99.90;;;;;;5018178;28;20037;-81
2024/02/17 01:46:00;;;;;;;22.48;10.90;;;8.90;99.90;;;;;;5018620;28;20041;-81
2024/02/17 01:48:26;;;;;;;24.70;10.95;;;9.00;99.90;;;;;;5018630;28;20421;-81
2024/02/17 01:50:52;;;;;;;18.52;10.32;;;9.00;99.90;;;;;;5017984;28;20044;-81
2024/02/17 01:53:17;;;;;;;28.35;12.02;;;9.00;99.90;;;;;;5019523;28;20030;-81
2024/02/17 01:55:43;;;;;;;25.85;10.35;;;8.90;99.90;;;;;;5019153;28;20060;-82
2024/02/17 01:58:10;;;;;;;23.00;11.00;;;8.90;99.90;;;;;;5018486;28;20026;-81
2024/02/17 02:00:37;;;;;;;26.15;10.63;;;8.80;99.90;;;;;;5019437;28;20034;-81
2024/02/17 02:03:03;;;;;;;27.60;12.48;;;8.70;99.90;;;;;;5017979;28;20049;-81
2024/02/17 02:05:29;;;;;;;26.33;11.80;;;8.70;99.90;;;;;;5017581;28;20595;-81
2024/02/17 02:07:55;;;;;;;28.27;11.77;;;8.70;99.90;;;;;;5018564;28;20045;-81
2024/02/17 02:10:21;;;;;;;26.23;10.60;;;8.60;99.90;;;;;;5019017;28;20377;-80
2024/02/17 02:12:46;;;;;;;28.42;11.90;;;8.70;99.90;;;;;;5017750;28;20112;-81
2024/02/17 02:15:12;;;;;;;27.45;11.63;;;8.80;99.90;;;;;;5018249;28;20030;-81
2024/02/17 02:17:39;;;;;;;23.30;10.73;;;8.90;99.90;;;;;;5019097;28;20045;-80
2024/02/17 02:20:06;;;;;;;25.65;11.40;;;9.00;99.90;;;;;;5017819;28;20045;-82
2024/02/17 02:22:33;;;;;;;25.02;11.95;;;9.10;99.90;;;;;;5017929;28;20037;-80
2024/02/17 02:24:59;;;;;;;25.13;10.60;;;9.10;99.90;;;;;;5018414;28;20776;-81
2024/02/17 02:27:28;;;;;;;21.90;10.98;;;9.00;99.90;;;;;;5017089;28;20037;-80
2024/02/17 02:29:56;;;;;;;23.08;11.45;;;8.80;99.90;;;;;;5017109;28;20510;-82
2024/02/17 02:32:25;;;;;;;25.35;10.77;;;8.80;99.90;;;;;;5018017;28;20040;-81
2024/02/17 02:34:52;;;;;;;20.33;10.68;;;8.80;99.90;;;;;;5017499;28;20044;-82
2024/02/17 02:37:17;;;;;;;27.88;11.50;;;8.80;99.90;;;;;;5017041;28;20136;-81
2024/02/17 02:39:43;;;;;;;27.70;11.10;;;8.80;99.90;;;;;;5017437;28;20554;-80
2024/02/17 02:42:09;;;;;;;26.45;11.45;;;8.70;99.90;;;;;;5017841;28;20040;-80
2024/02/17 02:44:35;;;;;;;22.88;10.43;;;8.70;99.90;;;;;;5018750;28;20030;-81
2024/02/17 02:47:00;;;;;;;21.45;10.32;;;8.70;99.90;;;;;;5017732;28;20495;-79
2024/02/17 02:49:26;;;;;;;26.15;10.43;;;8.70;99.90;;;;;;5018129;28;20120;-79
2024/02/17 02:51:52;;;;;;;22.55;10.63;;;8.80;99.90;;;;;;5017206;28;20124;-81
2024/02/17 02:54:19;;;;;;;19.73;8.35;;;8.80;99.90;;;;;;5017020;28;20686;-80
2024/02/17 02:56:44;;;;;;;17.75;8.38;;;8.80;99.90;;;;;;5017705;28;20402;-78
2024/02/17 02:59:10;;;;;;;24.13;9.68;;;8.70;99.90;;;;;;5017577;28;20041;-78
2024/02/17 03:01:36;;;;;;;20.67;9.52;;;8.60;99.90;;;;;;5017268;28;20041;-78
2024/02/17 03:04:01;;;;;;;18.30;8.50;;;8.50;99.90;;;;;;5017423;28;20067;-81
2024/02/17 03:06:29;;;;;;;16.67;8.07;;;8.40;99.90;;;;;;5017548;28;20048;-81
2024/02/17 03:08:55;;;;;;;16.63;8.63;;;8.30;99.90;;;;;;5017549;28;20069;-81
2024/02/17 03:11:20;;;;;;;19.80;8.13;;;8.30;99.90;;;;;;5016645;28;20034;-81
2024/02/17 03:13:46;;;;;;;18.23;9.93;;;8.30;99.90;;;;;;5018396;28;20466;-81
2024/02/17 03:16:22;;;;;;;19.33;8.13;;;8.30;99.90;;;;;;5017633;28;20091;-81
2024/02/17 03:18:48;;;;;;;17.75;8.70;;;8.20;99.90;;;;;;5016681;28;20087;-81
2024/02/17 03:21:13;;;;;;;17.52;7.70;;;8.10;99.90;;;;;;5017493;28;20457;-80
2024/02/17 03:23:39;;;;;;;17.65;8.02;;;8.10;99.90;;;;;;5017665;28;20714;-82
2024/02/17 03:26:05;;;;;;;18.08;8.18;;;8.00;99.90;;;;;;5017115;28;20033;-81
2024/02/17 03:28:31;;;;;;;20.65;7.43;;;8.00;99.90;;;;;;5016564;28;20029;-82
2024/02/17 03:30:57;;;;;;;16.90;6.78;;;8.00;99.90;;;;;;5017767;28;20040;-81
2024/02/17 03:33:23;;;;;;;16.05;7.70;;;7.70;99.90;;;;;;5016348;28;20025;-82
2024/02/17 03:35:49;;;;;;;14.23;6.63;;;7.80;99.90;;;;;;5016094;28;20337;-81
2024/02/17 03:38:15;;;;;;;17.25;7.28;;;7.80;99.90;;;;;;5016417;28;20099;-81
2024/02/17 03:40:40;;;;;;;15.68;6.85;;;7.80;99.90;;;;;;5017290;28;20037;-82
2024/02/17 03:43:06;;;;;;;15.45;7.45;;;7.80;99.90;;;;;;5015338;28;20044;-81
2024/02/17 03:45:31;;;;;;;19.33;7.97;;;8.00;99.90;;;;;;5017282;28;20029;-80
2024/02/17 03:47:57;;;;;;;17.42;6.88;;;8.00;99.90;;;;;;5016091;28;20027;-81
2024/02/17 03:50:23;;;;;;;12.48;6.68;;;8.00;99.90;;;;;;5016440;28;21359;-81
2024/02/17 03:52:48;;;;;;;15.23;6.70;;;8.00;99.90;;;;;;5016880;28;20021;-81
2024/02/17 03:55:14;;;;;;;16.20;7.65;;;8.00;99.90;;;;;;5016228;28;20502;-78
2024/02/17 03:57:40;;;;;;;17.13;7.40;;;8.00;99.90;;;;;;5016062;28;20030;-81
2024/02/17 04:00:07;;;;;;;17.63;7.18;;;8.10;99.90;;;;;;5017022;28;20116;-81
2024/02/17 04:02:33;;;;;;;15.18;7.40;;;8.00;99.90;;;;;;5014140;28;20639;-82
2024/02/17 04:04:59;;;;;;;16.10;7.97;;;7.90;99.90;;;;;;5012032;28;20029;-80
2024/02/17 04:07:25;;;;;;;16.08;7.97;;;8.00;99.90;;;;;;5012125;28;20091;-81
2024/02/17 04:09:50;;;;;;;18.80;8.10;;;7.90;99.90;;;;;;5013179;28;20049;-82
2024/02/17 04:12:16;;;;;;;16.88;7.22;;;7.90;99.90;;;;;;5012477;28;20034;-81
2024/02/17 04:14:43;;;;;;;22.30;7.40;;;7.90;99.90;;;;;;5012140;28;20033;-80
2024/02/17 04:17:09;;;;;;;17.20;8.43;;;7.90;99.90;;;;;;5011155;28;20040;-82
2024/02/17 04:19:34;;;;;;;21.38;8.90;;;8.00;99.90;;;;;;5011219;28;20041;-81
2024/02/17 04:22:00;;;;;;;15.52;7.63;;;8.00;99.90;;;;;;5010442;28;20951;-81
2024/02/17 04:24:26;;;;;;;14.43;6.97;;;8.10;99.90;;;;;;5010206;28;20052;-81
2024/02/17 04:26:51;;;;;;;14.32;5.97;;;8.10;99.90;;;;;;5011283;28;20072;-81
2024/02/17 04:29:18;;;;;;;16.08;6.45;;;8.10;99.90;;;;;;5010577;28;20104;-81
2024/02/17 04:31:44;;;;;;;13.90;6.63;;;8.10;99.90;;;;;;5012629;28;20517;-82
2024/02/17 04:34:10;;;;;;;12.80;6.45;;;8.00;99.90;;;;;;5013724;28;20033;-81
2024/02/17 04:36:36;;;;;;;13.70;5.50;;;8.10;99.90;;;;;;5012266;28;20061;-81
2024/02/17 04:39:01;;;;;;;13.25;6.28;;;8.10;99.90;;;;;;5013798;28;20041;-81
2024/02/17 04:41:27;;;;;;;14.45;6.45;;;8.00;99.90;;;;;;5013342;28;20825;-82
2024/02/17 04:43:52;;;;;;;14.20;6.85;;;7.80;99.90;;;;;;5012853;28;20124;-81
2024/02/17 04:46:18;;;;;;;13.63;6.18;;;7.70;99.90;;;;;;5013048;28;20162;-81
2024/02/17 04:48:44;;;;;;;15.07;7.05;;;7.80;99.90;;;;;;5012788;28;20034;-81
2024/02/17 04:51:09;;;;;;;12.75;6.20;;;8.00;99.90;;;;;;5013909;28;20022;-81
2024/02/17 04:53:35;;;;;;;11.23;5.82;;;8.00;99.90;;;;;;5013121;28;20551;-83
2024/02/17 04:56:01;;;;;;;13.77;5.72;;;7.90;99.90;;;;;;5014627;28;20086;-81
2024/02/17 04:58:26;;;;;;;10.63;5.07;;;7.80;99.90;;;;;;5013753;28;20037;-81
2024/02/17 05:00:52;;;;;;;14.35;5.68;;;7.60;99.90;;;;;;5013767;28;20092;-82
2024/02/17 05:03:18;;;;;;;10.85;5.00;;;7.70;99.90;;;;;;5014425;28;20042;-81
2024/02/17 05:05:44;;;;;;;12.02;5.75;;;7.70;99.90;;;;;;5014769;28;20030;-81
2024/02/17 05:08:10;;;;;;;13.23;5.80;;;7.70;99.90;;;;;;5013383;28;20037;-81
2024/02/17 05:10:37;;;;;;;8.90;5.28;;;7.70;99.90;;;;;;5015389;28;20033;-80
2024/02/17 05:13:03;;;;;;;12.15;5.50;;;7.70;99.90;;;;;;5016572;28;20033;-82
2024/02/17 05:15:29;;;;;;;10.30;4.55;;;7.70;99.90;;;;;;5015652;28;20044;-81
2024/02/17 05:17:54;;;;;;;8.95;4.53;;;7.60;99.90;;;;;;5015872;28;20387;-81
2024/02/17 05:20:20;;;;;;;12.23;5.32;;;7.60;99.90;;;;;;5016543;28;21430;-81
2024/02/17 05:22:46;;;;;;;12.15;4.68;;;7.80;99.90;;;;;;5016367;28;20073;-81
2024/02/17 05:25:11;;;;;;;10.30;5.30;;;7.80;99.90;;;;;;5016363;28;20080;-81
2024/02/17 05:27:37;;;;;;;13.25;5.68;;;7.60;99.90;;;;;;5015038;28;20083;-81
2024/02/17 05:30:03;;;;;;;11.13;4.93;;;7.50;99.90;;;;;;5016120;28;20453;-81
2024/02/17 05:32:29;;;;;;;12.30;5.38;;;7.70;99.90;;;;;;5015869;28;20060;-81
2024/02/17 05:34:55;;;;;;;10.15;5.00;;;7.70;99.90;;;;;;5016369;28;20379;-81
2024/02/17 05:37:22;;;;;;;11.10;5.60;;;7.60;99.90;;;;;;5016125;28;20037;-81
2024/02/17 05:39:47;;;;;;;10.75;5.03;;;7.50;99.90;;;;;;5015134;28;20110;-80
2024/02/17 05:42:13;;;;;;;10.23;5.60;;;7.50;99.90;;;;;;5014104;28;20503;-80
2024/02/17 05:44:38;;;;;;;13.18;4.35;;;7.30;99.90;;;;;;5012390;28;20091;-81
2024/02/17 05:47:04;;;;;;;10.73;4.95;;;7.20;99.90;;;;;;5013054;28;20946;-81
2024/02/17 05:49:31;;;;;;;12.02;4.22;;;7.10;99.90;;;;;;5013637;28;20084;-81
2024/02/17 05:51:57;;;;;;;7.63;4.13;;;7.10;99.90;;;;;;5013264;28;20026;-82
2024/02/17 05:54:23;;;;;;;10.10;5.20;;;7.00;99.90;;;;;;5012966;28;20379;-78
2024/02/17 05:56:49;;;;;;;11.32;4.50;;;6.90;99.90;;;;;;5015125;28;20048;-80
2024/02/17 05:59:15;;;;;;;7.15;3.90;;;7.00;99.90;;;;;;5015800;28;20856;-81
2024/02/17 06:01:42;;;;;;;9.27;5.18;;;7.10;99.90;;;;;;5013308;28;20049;-82
2024/02/17 06:04:08;;;;;;;12.88;5.25;;;7.10;99.90;;;;;;5013501;28;20044;-82
2024/02/17 06:06:34;;;;;;;11.15;4.85;;;7.00;99.90;;;;;;5013504;28;20053;-81
2024/02/17 06:09:00;;;;;;;13.55;5.93;;;6.90;99.90;;;;;;5012398;28;20061;-82
2024/02/17 06:11:25;;;;;;;13.77;6.15;;;6.70;99.90;;;;;;5012957;28;20033;-81
2024/02/17 06:13:51;;;;;;;12.75;5.65;;;6.90;99.90;;;;;;5011748;28;20136;-81
2024/02/17 06:16:18;;;;;;;12.65;5.50;;;6.90;99.90;;;;;;5012922;28;20489;-80
2024/02/17 06:21:31;;;;;;;8.75;4.63;;;7.10;99.90;;;;;;5012586;28;20136;-80
2024/02/17 06:23:58;;;;;;;12.57;5.35;;;7.20;99.90;;;;;;5011873;28;20037;-81
2024/02/17 06:26:28;;;;;;;10.85;4.65;;;7.30;99.90;;;;;;5012512;28;20041;-81
2024/02/17 06:28:56;;;;;;;15.70;5.18;;;7.40;99.90;;;;;;5013098;28;20090;-83
2024/02/17 06:31:23;;;;;;;11.43;4.82;;;7.30;99.90;;;;;;5012246;28;20033;-82
2024/02/17 06:33:49;;;;;;;10.57;4.40;;;7.20;99.90;;;;;;5013156;28;20098;-81
2024/02/17 06:36:15;;;;;;;15.20;5.75;;;7.10;99.90;;;;;;5012550;28;20078;-81
2024/02/17 06:38:41;;;;;;;11.18;5.00;;;7.30;99.90;;;;;;5012516;28;20030;-82
2024/02/17 06:41:11;;;;;;;11.40;4.78;;;7.40;99.90;;;;;;5012017;28;20490;-81
2024/02/17 06:43:37;;;;;;;8.73;4.43;;;7.30;99.90;;;;;;5012463;28;20037;-82
2024/02/17 06:46:05;;;;;;;10.50;4.68;;;7.40;99.90;;;;;;5014611;28;20030;-79
2024/02/17 06:48:31;;;;;;;10.25;4.85;;;7.40;99.90;;;;;;5014589;28;20037;-80
2024/02/17 06:50:56;;;;;;;11.02;4.25;;;7.40;99.90;;;;;;5014262;28;20029;-79
2024/02/17 06:53:22;;;;;;;11.32;4.88;;;7.30;99.90;;;;;;5014615;28;20120;-79
2024/02/17 06:55:48;;;;;;;9.05;4.20;;;7.40;99.90;;;;;;5011322;28;20876;-79
2024/02/17 06:58:14;;;;;;;7.88;4.03;;;7.40;99.90;;;;;;5011571;28;20403;-79
2024/02/17 07:00:40;;;;;;;9.70;4.45;;;7.50;99.90;;;;;;5012594;28;20045;-79
2024/02/17 07:03:07;;;;;;;10.32;4.75;;;7.50;99.90;;;;;;5012148;28;20105;-80
2024/02/17 07:05:33;;;;;;;9.68;4.65;;;7.40;99.90;;;;;;5011534;28;20044;-80
2024/02/17 07:07:59;;;;;;;11.88;5.43;;;7.30;99.90;;;;;;5011354;28;20494;-81
2024/02/17 07:10:25;;;;;;;11.68;5.07;;;7.30;99.90;;;;;;5011288;28;20037;-79
2024/02/17 07:12:51;;;;;;;12.90;4.97;;;7.30;99.90;;;;;;5010799;28;20026;-80
2024/02/17 07:15:17;;;;;;;9.13;4.53;;;7.40;99.90;;;;;;5012634;28;20034;-79
2024/02/17 07:17:42;;;;;;;9.48;4.10;;;7.30;99.90;;;;;;5012171;28;20418;-80
2024/02/17 07:20:09;;;;;;;12.15;4.80;;;7.30;99.90;;;;;;5011201;28;20036;-79
2024/02/17 07:22:35;;;;;;;8.35;4.65;;;7.30;99.90;;;;;;5011204;28;20506;-79
2024/02/17 07:25:02;;;;;;;8.73;4.95;;;7.30;99.90;;;;;;5012007;28;20033;-80
2024/02/17 07:27:28;;;;;;;10.68;4.60;;;7.40;99.90;;;;;;5012056;28;20113;-79
2024/02/17 07:29:54;;;;;;;10.88;5.38;;;7.40;99.90;;;;;;5010568;28;20121;-79
2024/02/17 07:32:22;;;;;;;8.73;4.90;;;7.40;99.90;;;;;;5012081;28;20033;-80
2024/02/17 07:34:51;;;;;;;10.68;3.90;;;7.50;99.90;;;;;;5010984;28;20124;-79
2024/02/17 07:37:20;;;;;;;9.95;5.25;;;7.50;99.90;;;;;;5009384;28;20532;-79
2024/02/17 07:39:46;;;;;;;9.88;4.90;;;7.70;99.90;;;;;;5011823;28;20033;-80
2024/02/17 07:42:12;;;;;;;7.75;4.15;;;7.70;99.90;;;;;;5010620;28;20044;-79
2024/02/17 07:44:40;;;;;;;8.05;4.40;;;7.80;99.90;;;;;;5010719;28;20033;-81
2024/02/17 07:47:06;;;;;;;8.38;4.35;;;7.70;99.90;;;;;;5010966;28;20037;-79
2024/02/17 07:49:32;;;;;;;8.70;3.85;;;7.70;99.90;;;;;;5011372;28;20107;-81
2024/02/17 07:51:58;;;;;;;12.10;4.65;;;7.80;99.90;;;;;;5010588;28;20033;-81
2024/02/17 07:54:24;;;;;;;8.00;3.90;;;7.80;99.90;;;;;;5010701;28;20110;-81
2024/02/17 07:56:49;;;;;;;9.93;4.82;;;7.80;99.90;;;;;;5011255;28;20112;-81
2024/02/17 07:59:15;;;;;;;7.50;3.80;;;7.70;99.90;;;;;;5010814;28;20025;-81
2024/02/17 08:01:41;;;;;;;10.15;4.20;;;7.70;99.90;;;;;;5010822;28;20045;-81
2024/02/17 08:04:07;;;;;;;9.50;4.32;;;7.70;99.90;;;;;;5011141;28;20037;-81
2024/02/17 08:06:33;;;;;;;9.07;4.45;;;7.80;99.90;;;;;;5011514;28;20099;-81
2024/02/17 08:08:58;;;;;;;10.07;4.00;;;7.80;99.90;;;;;;5010860;28;20120;-81
2024/02/17 08:11:24;;;;;;;11.23;5.13;;;7.80;99.90;;;;;;5012135;28;20034;-81
2024/02/17 08:13:50;;;;;;;12.85;5.20;;;7.80;99.90;;;;;;5011324;28;20037;-79
2024/02/17 08:16:16;;;;;;;11.23;4.32;;;7.80;99.90;;;;;;5010704;28;20033;-80
2024/02/17 08:18:45;;;;;;;11.55;4.35;;;7.90;99.90;;;;;;5011235;28;20345;-81
2024/02/17 08:21:11;;;;;;;14.50;4.45;;;7.90;99.90;;;;;;5011555;28;20598;-81
2024/02/17 08:23:37;;;;;;;9.95;4.35;;;7.90;99.90;;;;;;5012444;28;20033;-81
2024/02/17 08:26:03;;;;;;;10.25;4.95;;;8.00;99.90;;;;;;5014429;28;20122;-81
2024/02/17 08:28:29;;;;;;;8.57;4.35;;;8.00;99.90;;;;;;5015521;28;20114;-81
2024/02/17 08:30:54;;;;;;;9.48;4.22;;;8.00;99.90;;;;;;5014743;28;20876;-81
2024/02/17 08:33:20;;;;;;;10.07;4.47;;;8.10;99.90;;;;;;5013765;28;20048;-80
2024/02/17 08:35:46;;;;;;;9.43;4.35;;;8.10;99.90;;;;;;5014827;28;20095;-79
2024/02/17 08:38:12;;;;;;;12.07;4.68;;;8.20;99.90;;;;;;5014882;28;20094;-80
2024/02/17 08:40:38;;;;;;;9.65;3.95;;;8.20;99.90;;;;;;5014705;28;20025;-79
2024/02/17 08:43:07;;;;;;;9.90;4.57;;;8.30;99.90;;;;;;5014749;28;20069;-81
2024/02/17 08:45:33;;;;;;;10.35;4.10;;;8.20;99.90;;;;;;5015032;28;20967;-82
2024/02/17 08:47:58;;;;;;;14.95;4.20;;;8.20;99.90;;;;;;5015150;28;20038;-82
2024/02/17 08:50:24;;;;;;;10.85;4.68;;;8.30;99.90;;;;;;5013562;28;20617;-81
2024/02/17 08:52:50;;;;;;;10.52;4.47;;;8.30;99.90;;;;;;5014405;28;20557;-81
2024/02/17 08:55:16;;;;;;;9.93;4.63;;;8.40;99.90;;;;;;5014858;28;20383;-80
2024/02/17 08:57:42;;;;;;;9.60;4.80;;;8.20;99.90;;;;;;5014230;28;20042;-81
2024/02/17 09:00:08;;;;;;;7.28;3.97;;;8.20;99.90;;;;;;5014210;28;20025;-81
2024/02/17 09:02:34;;;;;;;11.27;4.88;;;8.30;99.90;;;;;;5014033;28;20052;-82
2024/02/17 09:05:03;;;;;;;8.00;4.80;;;8.40;99.90;;;;;;5014816;28;20037;-81
2024/02/17 09:07:29;;;;;;;8.80;4.65;;;8.40;99.90;;;;;;5012188;28;20036;-81
2024/02/17 09:09:55;;;;;;;7.38;4.00;;;8.50;99.90;;;;;;5013871;28;20061;-81
2024/02/17 09:12:21;;;;;;;9.88;4.40;;;8.70;99.90;;;;;;5014752;28;20391;-81
2024/02/17 09:14:47;;;;;;;12.02;5.25;;;8.70;99.90;;;;;;5014931;28;20041;-81
2024/02/17 09:17:14;;;;;;;7.65;3.80;;;8.80;99.90;;;;;;5013649;28;20038;-81
2024/02/17 09:19:40;;;;;;;8.60;4.88;;;8.90;99.90;;;;;;5014816;28;20033;-80
2024/02/17 09:22:06;;;;;;;8.75;5.07;;;9.00;99.90;;;;;;5013175;28;20052;-82
2024/02/17 09:24:32;;;;;;;9.82;4.75;;;9.10;99.90;;;;;;5013297;28;20033;-80
2024/02/17 09:27:00;;;;;;;9.07;5.07;;;9.10;99.90;;;;;;5016327;28;20037;-80
2024/02/17 09:29:28;;;;;;;8.85;4.65;;;9.10;99.90;;;;;;5018202;28;20490;-79
2024/02/17 09:31:54;;;;;;;9.10;4.78;;;9.20;99.90;;;;;;5019258;28;20029;-79
2024/02/17 09:34:20;;;;;;;9.90;5.03;;;9.20;99.90;;;;;;5019924;28;20045;-79
2024/02/17 09:36:47;;;;;;;10.90;4.45;;;9.30;99.90;;;;;;5018567;28;20044;-79
2024/02/17 09:39:14;;;;;;;9.88;4.78;;;9.40;99.90;;;;;;5018236;28;20391;-79
2024/02/17 09:41:40;;;;;;;10.32;5.00;;;9.40;99.90;;;;;;5018703;28;20195;-80
2024/02/17 09:44:10;;;;;;;9.52;4.60;;;9.50;99.90;;;;;;5019164;28;20029;-81
2024/02/17 09:46:36;;;;;;;11.45;4.60;;;9.60;99.90;;;;;;5018828;28;21561;-81
2024/02/17 09:49:03;;;;;;;7.28;4.22;;;9.60;99.90;;;;;;5018971;28;20041;-81
2024/02/17 09:51:33;;;;;;;9.95;4.93;;;9.60;99.90;;;;;;5019083;28;20041;-81
2024/02/17 09:53:59;;;;;;;12.05;4.63;;;9.70;99.90;;;;;;5019253;28;20025;-80
2024/02/17 09:56:26;;;;;;;10.38;5.00;;;9.70;99.90;;;;;;5018293;28;20490;-81
2024/02/17 09:58:52;;;;;;;14.90;5.28;;;9.70;99.90;;;;;;5018225;28;20694;-81
2024/02/17 10:01:19;;;;;;;10.52;4.80;;;9.80;99.90;;;;;;5018135;28;20063;-81
2024/02/17 10:03:46;;;;;;;13.73;5.40;;;9.80;99.90;;;;;;5018832;28;20029;-81
2024/02/17 10:06:14;;;;;;;12.95;4.80;;;10.00;99.90;;;;;;5016720;28;20037;-81
2024/02/17 10:08:40;;;;;;;8.65;4.78;;;10.00;99.90;;;;;;5016530;28;20049;-82
2024/02/17 10:11:10;;;;;;;9.20;4.90;;;10.00;99.90;;;;;;5015518;28;20052;-81
2024/02/17 10:13:37;;;;;;;10.50;5.40;;;10.20;99.90;;;;;;5016019;28;20032;-82
2024/02/17 10:16:13;;;;;;;11.02;5.35;;;10.20;99.90;;;;;;5015862;28;20440;-82
2024/02/17 10:18:42;;;;;;;11.07;5.70;;;10.30;99.90;;;;;;5016797;28;20471;-81
2024/02/17 10:21:09;;;;;;;12.15;5.80;;;10.30;99.90;;;;;;5018590;28;20223;-83
2024/02/17 10:23:34;;;;;;;13.30;5.70;;;10.40;99.90;;;;;;5018016;28;20470;-83
2024/02/17 10:26:01;;;;;;;10.98;4.93;;;10.50;99.90;;;;;;5018042;28;20033;-82
2024/02/17 10:28:28;;;;;;;12.13;5.50;;;10.60;99.90;;;;;;5016989;28;20034;-82
2024/02/17 10:30:55;;;;;;;9.57;5.10;;;10.80;99.90;;;;;;5013487;28;20037;-79
2024/02/17 10:33:21;;;;;;;12.98;5.53;;;10.90;99.90;;;;;;5014855;28;20041;-82
2024/02/17 10:35:47;;;;;;;11.43;6.13;;;10.90;99.90;;;;;;5014193;28;20033;-81
2024/02/17 10:38:13;;;;;;;12.23;6.28;;;11.00;99.90;;;;;;5013232;28;20045;-82
2024/02/17 10:40:39;;;;;;;11.60;4.93;;;10.90;99.90;;;;;;5013485;28;20387;-83
2024/02/17 10:43:05;;;;;;;11.23;6.35;;;10.90;99.90;;;;;;5012067;28;20115;-82
2024/02/17 10:45:31;;;;;;;12.25;6.00;;;10.90;99.90;;;;;;5011939;28;20044;-82
2024/02/17 10:48:04;;;;;;;14.20;6.20;;;11.20;99.90;;;;;;5010075;28;20037;-83
2024/02/17 10:50:32;;;;;;;15.82;5.80;;;11.20;99.90;;;;;;5011654;28;20032;-84
2024/02/17 10:53:24;;;;;;;10.38;5.68;;;11.20;99.90;;;;;;5011350;28;20050;-82
2024/02/17 10:55:54;;;;;;;10.88;5.93;;;11.40;99.90;;;;;;5009031;28;20041;-82
2024/02/17 10:58:21;;;;;;;10.15;5.43;;;11.50;99.90;;;;;;5011791;28;20562;-82
2024/02/17 11:00:48;;;;;;;10.38;4.68;;;11.50;99.90;;;;;;5012690;28;20510;-82
2024/02/17 11:03:22;;;;;;;23.25;10.35;;;11.50;99.90;;;;;;5013719;28;20555;-81
2024/02/17 11:05:51;;;;;;;13.48;5.82;;;11.70;99.90;;;;;;5012981;28;20682;-82
2024/02/17 11:08:18;;;;;;;9.88;6.20;;;11.90;99.90;;;;;;5012077;28;21445;-82
2024/02/17 11:10:44;;;;;;;11.40;5.55;;;12.10;99.90;;;;;;5009891;28;20711;-82
2024/02/17 11:13:25;;;;;;;9.32;4.93;;;12.20;99.90;;;;;;5010410;28;20033;-81
2024/02/17 11:16:09;;;;;;;10.65;4.88;;;12.20;99.80;;;;;;5009769;28;20026;-82
2024/02/17 11:18:39;;;;;;;37.38;13.25;;;12.30;98.90;;;;;;5009942;28;20503;-82
2024/02/17 11:21:10;;;;;;;16.52;8.85;;;12.20;99.00;;;;;;5010586;28;20482;-82
2024/02/17 11:23:40;;;;;;;13.63;6.22;;;12.40;98.60;;;;;;5012995;28;20387;-82
2024/02/17 11:26:23;;;;;;;11.10;5.43;;;12.50;98.80;;;;;;5012774;28;20088;-82
2024/02/17 11:28:49;;;;;;;11.35;5.18;;;12.40;98.40;;;;;;5011388;28;20402;-82
2024/02/17 11:31:17;;;;;;;11.10;5.10;;;12.60;98.60;;;;;;5010800;28;20046;-82
2024/02/17 11:33:44;;;;;;;15.27;5.90;;;12.80;98.60;;;;;;5010863;28;20047;-82
2024/02/17 11:36:13;;;;;;;10.18;5.15;;;12.90;98.50;;;;;;5011400;28;20045;-81
2024/02/17 11:38:39;;;;;;;10.57;4.78;;;13.00;98.70;;;;;;5010382;28;20356;-82
2024/02/17 11:41:05;;;;;;;13.20;5.13;;;13.10;98.60;;;;;;5011357;28;20041;-82
2024/02/17 11:43:33;;;;;;;12.82;5.05;;;13.00;98.00;;;;;;5009980;28;20139;-83
2024/02/17 11:45:59;;;;;;;11.60;5.53;;;13.00;98.30;;;;;;5007431;28;20029;-83
2024/02/17 11:48:25;;;;;;;9.63;4.28;;;13.10;98.20;;;;;;5009619;28;20495;-82
2024/02/17 11:51:03;;;;;;;10.00;4.88;;;13.20;98.30;;;;;;5010987;28;20597;-82
2024/02/17 11:53:29;;;;;;;10.70;4.82;;;13.10;98.20;;;;;;5010094;28;20462;-82
2024/02/17 11:55:59;;;;;;;10.38;5.60;;;13.40;98.30;;;;;;5009865;28;20100;-82
2024/02/17 11:58:24;;;;;;;11.00;4.80;;;13.60;98.10;;;;;;5010601;28;20045;-84
2024/02/17 12:00:57;;;;;;;9.98;5.07;;;13.60;97.60;;;;;;5013020;28;20042;-82
2024/02/17 12:03:27;;;;;;;12.48;5.45;;;13.70;97.80;;;;;;5012632;28;20049;-81
2024/02/17 12:05:52;;;;;;;9.15;4.72;;;13.80;97.60;;;;;;5012913;28;20056;-83
2024/02/17 12:08:18;;;;;;;10.52;4.15;;;13.80;97.20;;;;;;5011736;28;20503;-81
2024/02/17 12:10:46;;;;;;;9.88;4.28;;;13.90;96.70;;;;;;5012846;28;20038;-81
2024/02/17 12:13:12;;;;;;;10.18;4.68;;;14.00;97.00;;;;;;5011737;28;20112;-81
2024/02/17 12:15:37;;;;;;;8.48;4.55;;;14.10;97.10;;;;;;5011760;28;20090;-81
2024/02/17 12:18:04;;;;;;;8.85;4.05;;;14.20;96.80;;;;;;5013485;28;20041;-82
2024/02/17 12:20:31;;;;;;;7.78;4.35;;;14.20;96.40;;;;;;5012600;28;20029;-81
2024/02/17 12:22:58;;;;;;;10.35;4.10;;;14.30;96.50;;;;;;5012408;28;20045;-82
2024/02/17 12:25:26;;;;;;;9.60;4.20;;;14.40;96.80;;;;;;5011754;28;20080;-81
2024/02/17 12:27:52;;;;;;;9.32;4.15;;;14.50;96.40;;;;;;5013691;28;20057;-82
2024/02/17 12:30:18;;;;;;;10.70;3.65;;;14.60;96.40;;;;;;5012125;28;20129;-81
2024/02/17 12:32:45;;;;;;;11.93;4.22;;;14.80;95.80;;;;;;5011075;28;20125;-80
2024/02/17 12:35:20;;;;;;;11.05;3.78;;;14.70;95.70;;;;;;5012530;28;20029;-82
2024/02/17 12:37:49;;;;;;;7.45;4.03;;;14.70;95.40;;;;;;5012321;28;20037;-81
2024/02/17 12:40:19;;;;;;;8.25;3.60;;;14.70;95.60;;;;;;5013108;28;20422;-81
2024/02/17 12:42:52;;;;;;;10.55;4.60;;;14.80;95.70;;;;;;5011326;28;20136;-82
2024/02/17 12:45:24;;;;;;;11.00;4.75;;;14.70;95.60;;;;;;5012510;28;20103;-82